Time;durP1;ratioP1;P1;durP2;ratioP2;P2;SDS_P1;SDS_P2;PMS_P1;PMS_P2;Temp;Humidity;BMP_temperature;BMP_pressure;BME280_temperature;BME280_humidity;BME280_pressure;Samples;Min_cycle;Max_cycle;Signal;HPM_P1;HPM_P2
2023/05/01 00:02:25;;;;;;;5.70;5.18;;;13.10;67.30;;;;;;5013569;28;20563;-63
2023/05/01 00:04:51;;;;;;;5.80;5.20;;;13.00;67.30;;;;;;5013497;28;20038;-63
2023/05/01 00:07:17;;;;;;;6.00;5.32;;;13.00;67.50;;;;;;5014337;28;20091;-63
2023/05/01 00:09:42;;;;;;;8.00;5.75;;;12.90;67.50;;;;;;5016842;28;20095;-63
2023/05/01 00:12:10;;;;;;;8.95;5.65;;;12.90;67.70;;;;;;5015628;28;20038;-63
2023/05/01 00:14:35;;;;;;;6.22;5.40;;;12.90;67.80;;;;;;5013331;28;20041;-64
2023/05/01 00:17:01;;;;;;;6.22;5.50;;;12.90;67.70;;;;;;5010532;28;20033;-63
2023/05/01 00:19:27;;;;;;;5.72;5.20;;;12.90;67.60;;;;;;4995112;28;20087;-63
2023/05/01 00:21:52;;;;;;;5.57;4.97;;;12.90;67.60;;;;;;4989397;28;20097;-63
2023/05/01 00:24:18;;;;;;;6.63;5.00;;;12.90;67.60;;;;;;4991088;28;20499;-63
2023/05/01 00:26:43;;;;;;;5.63;4.68;;;12.80;67.70;;;;;;4991787;28;20125;-62
2023/05/01 00:29:09;;;;;;;6.13;5.10;;;12.80;68.60;;;;;;4993614;28;20445;-63
2023/05/01 00:31:35;;;;;;;5.63;5.07;;;12.90;67.80;;;;;;4994096;28;20034;-63
2023/05/01 00:34:01;;;;;;;5.72;5.15;;;12.80;67.80;;;;;;4995372;28;20080;-63
2023/05/01 00:36:26;;;;;;;6.45;5.72;;;12.80;67.80;;;;;;4997593;28;20385;-64
2023/05/01 00:38:52;;;;;;;7.18;5.70;;;12.80;67.80;;;;;;4996129;28;20085;-63
2023/05/01 00:41:18;;;;;;;6.30;5.70;;;12.80;67.80;;;;;;4992710;28;20362;-63
2023/05/01 00:43:43;;;;;;;9.88;6.13;;;12.80;67.80;;;;;;4994395;28;20117;-63
2023/05/01 00:46:10;;;;;;;7.70;5.88;;;12.80;67.80;;;;;;4994375;28;20046;-63
2023/05/01 00:48:35;;;;;;;6.40;5.13;;;12.80;67.80;;;;;;4995715;28;20064;-63
2023/05/01 00:51:04;;;;;;;6.65;5.05;;;12.80;67.90;;;;;;4997201;28;20038;-63
2023/05/01 00:53:32;;;;;;;7.40;5.93;;;12.80;68.00;;;;;;4996502;28;20038;-63
2023/05/01 00:55:59;;;;;;;5.88;4.70;;;12.80;68.10;;;;;;4994743;28;20038;-63
2023/05/01 00:58:25;;;;;;;5.43;4.93;;;12.70;68.00;;;;;;4994430;28;20078;-64
2023/05/01 01:00:51;;;;;;;5.82;5.32;;;12.80;68.10;;;;;;4999320;28;20169;-63
2023/05/01 01:03:17;;;;;;;6.00;5.43;;;12.70;68.00;;;;;;4997824;28;20440;-63
2023/05/01 01:05:53;;;;;;;6.07;5.47;;;12.70;68.00;;;;;;4995180;28;20038;-63
2023/05/01 01:08:23;;;;;;;5.85;5.30;;;12.70;68.30;;;;;;4994926;28;20513;-63
2023/05/01 01:10:56;;;;;;;6.35;5.18;;;12.70;68.30;;;;;;4992773;28;20038;-63
2023/05/01 01:13:31;;;;;;;5.85;5.28;;;12.70;68.20;;;;;;4993845;28;20034;-63
2023/05/01 01:16:14;;;;;;;7.03;5.00;;;12.70;68.30;;;;;;4995579;28;20153;-63
2023/05/01 01:18:51;;;;;;;6.78;5.25;;;12.70;68.30;;;;;;4994790;28;20036;-63
2023/05/01 01:21:26;;;;;;;6.18;5.28;;;12.70;68.40;;;;;;4994426;28;20038;-63
2023/05/01 01:24:34;;;;;;;5.85;5.15;;;12.70;68.20;;;;;;4995734;28;20120;-63
2023/05/01 01:27:29;;;;;;;6.03;5.50;;;12.70;68.50;;;;;;4994468;28;20034;-63
2023/05/01 01:30:16;;;;;;;6.28;5.68;;;12.60;68.50;;;;;;4992288;28;20104;-63
2023/05/01 01:33:19;;;;;;;7.00;5.32;;;12.60;68.50;;;;;;4993805;28;20026;-62
2023/05/01 01:35:57;;;;;;;6.43;5.82;;;12.50;68.80;;;;;;4996061;28;20027;-63
2023/05/01 01:38:33;;;;;;;6.13;5.53;;;12.50;68.70;;;;;;4995117;28;20058;-63
2023/05/01 01:41:18;;;;;;;6.93;5.78;;;12.50;68.70;;;;;;4991139;28;20030;-61
2023/05/01 01:43:51;;;;;;;5.97;5.40;;;12.50;69.00;;;;;;4993770;28;20065;-63
2023/05/01 01:46:19;;;;;;;5.70;5.18;;;12.50;68.80;;;;;;4990924;28;20597;-63
2023/05/01 01:48:49;;;;;;;6.32;5.38;;;12.50;68.80;;;;;;4994322;28;20037;-62
2023/05/01 01:51:18;;;;;;;6.22;5.25;;;12.40;68.90;;;;;;4994103;28;20066;-63
2023/05/01 01:53:52;;;;;;;6.40;5.80;;;12.40;68.90;;;;;;4994893;28;20109;-63
2023/05/01 01:56:20;;;;;;;6.75;5.22;;;12.50;69.00;;;;;;4993834;28;20030;-63
2023/05/01 01:58:47;;;;;;;7.13;5.22;;;12.50;69.00;;;;;;4993573;28;20506;-63
2023/05/01 02:01:15;;;;;;;6.10;5.50;;;12.40;69.00;;;;;;4994719;28;20069;-62
2023/05/01 02:03:43;;;;;;;6.60;5.55;;;12.40;69.20;;;;;;4995302;28;20513;-63
2023/05/01 02:06:11;;;;;;;5.78;5.18;;;12.40;69.30;;;;;;4994840;28;20041;-63
2023/05/01 02:08:38;;;;;;;7.90;5.40;;;12.40;69.30;;;;;;4994208;28;20654;-63
2023/05/01 02:11:05;;;;;;;7.63;5.28;;;12.40;69.30;;;;;;5000729;28;20076;-63
2023/05/01 02:13:32;;;;;;;5.75;5.25;;;12.40;69.40;;;;;;4995805;28;20068;-63
2023/05/01 02:15:59;;;;;;;5.93;5.38;;;12.40;69.50;;;;;;4992312;28;20034;-63
2023/05/01 02:18:28;;;;;;;6.40;5.65;;;12.40;69.70;;;;;;4994935;28;20037;-63
2023/05/01 02:20:57;;;;;;;6.63;5.80;;;12.40;69.90;;;;;;4993695;28;20034;-63
2023/05/01 02:23:25;;;;;;;6.40;5.15;;;12.40;70.00;;;;;;4994591;28;20042;-63
2023/05/01 02:25:52;;;;;;;6.80;6.10;;;12.40;70.00;;;;;;4996021;28;20382;-62
2023/05/01 02:28:22;;;;;;;14.30;8.18;;;12.40;70.30;;;;;;5011621;28;20041;-63
2023/05/01 02:30:48;;;;;;;42.30;19.08;;;12.40;70.30;;;;;;5011763;28;20047;-63
2023/05/01 02:33:13;;;;;;;48.65;23.80;;;12.40;70.00;;;;;;4998926;28;20042;-63
2023/05/01 02:35:40;;;;;;;25.58;13.93;;;12.40;70.10;;;;;;4995841;28;20069;-63
2023/05/01 02:38:06;;;;;;;14.40;9.90;;;12.40;70.10;;;;;;4996374;28;20096;-62
2023/05/01 02:40:33;;;;;;;11.13;7.97;;;12.30;70.10;;;;;;4997342;28;20477;-63
2023/05/01 02:43:01;;;;;;;8.25;7.15;;;12.40;70.20;;;;;;4997775;28;20520;-63
2023/05/01 02:45:28;;;;;;;10.60;6.90;;;12.30;70.60;;;;;;4996441;28;20039;-63
2023/05/01 02:47:58;;;;;;;7.30;6.47;;;12.40;70.70;;;;;;4998829;28;20402;-63
2023/05/01 02:50:25;;;;;;;7.22;5.93;;;12.30;70.60;;;;;;4997109;28;20165;-63
2023/05/01 02:52:51;;;;;;;6.40;5.82;;;12.30;70.80;;;;;;4997554;28;20046;-63
2023/05/01 02:55:17;;;;;;;6.90;6.20;;;12.30;70.90;;;;;;4996161;28;20429;-63
2023/05/01 02:57:42;;;;;;;6.78;6.03;;;12.30;70.90;;;;;;4997406;28;20109;-63
2023/05/01 03:00:09;;;;;;;6.40;5.80;;;12.30;70.90;;;;;;4995656;28;20035;-62
2023/05/01 03:02:34;;;;;;;6.95;5.78;;;12.30;70.90;;;;;;4996016;28;20038;-63
2023/05/01 03:05:00;;;;;;;6.78;6.18;;;12.30;71.10;;;;;;4996502;28;20045;-63
2023/05/01 03:07:33;;;;;;;6.93;6.22;;;12.30;71.20;;;;;;4997545;28;20057;-62
2023/05/01 03:10:01;;;;;;;7.65;6.10;;;12.30;71.40;;;;;;4996092;28;20510;-63
2023/05/01 03:12:28;;;;;;;7.15;5.95;;;12.30;71.40;;;;;;4996357;28;20061;-62
2023/05/01 03:14:53;;;;;;;8.07;6.20;;;12.30;71.30;;;;;;4994773;28;20053;-63
2023/05/01 03:17:19;;;;;;;6.93;5.90;;;12.30;71.10;;;;;;4995091;28;20031;-63
2023/05/01 03:19:45;;;;;;;7.20;5.90;;;12.30;71.20;;;;;;4995753;28;20050;-62
2023/05/01 03:22:11;;;;;;;8.02;7.25;;;12.30;71.40;;;;;;4996085;28;20137;-64
2023/05/01 03:24:36;;;;;;;6.80;6.10;;;12.30;71.40;;;;;;4996946;28;20117;-62
2023/05/01 03:27:02;;;;;;;9.15;6.18;;;12.30;71.30;;;;;;4997262;28;20038;-62
2023/05/01 03:29:28;;;;;;;7.20;6.43;;;12.30;71.10;;;;;;4997418;28;22670;-63
2023/05/01 03:31:53;;;;;;;6.13;5.53;;;12.40;71.10;;;;;;4993007;28;20172;-63
2023/05/01 03:34:19;;;;;;;7.57;5.90;;;12.40;71.10;;;;;;4998250;28;20026;-62
2023/05/01 03:36:44;;;;;;;7.32;5.28;;;12.40;71.20;;;;;;4993529;28;20037;-63
2023/05/01 03:39:11;;;;;;;6.97;6.20;;;12.40;71.20;;;;;;4995309;28;20327;-63
2023/05/01 03:41:36;;;;;;;7.25;6.10;;;12.40;71.20;;;;;;4996486;28;20038;-62
2023/05/01 03:44:02;;;;;;;7.32;5.90;;;12.40;71.30;;;;;;4995718;28;20037;-63
2023/05/01 03:46:28;;;;;;;6.57;5.97;;;12.40;71.50;;;;;;4995155;28;20105;-63
2023/05/01 03:48:54;;;;;;;6.95;6.25;;;12.40;71.80;;;;;;4996624;28;20072;-63
2023/05/01 03:51:20;;;;;;;6.43;5.82;;;12.40;71.90;;;;;;4995487;28;20459;-62
2023/05/01 03:53:45;;;;;;;6.85;6.20;;;12.40;72.00;;;;;;4995964;28;20093;-63
2023/05/01 03:56:11;;;;;;;6.93;6.22;;;12.40;72.10;;;;;;4994685;28;20042;-62
2023/05/01 03:58:36;;;;;;;6.65;5.97;;;12.40;72.10;;;;;;4995427;28;20521;-62
2023/05/01 04:01:03;;;;;;;6.97;6.28;;;12.40;72.30;;;;;;4994065;28;20050;-62
2023/05/01 04:03:29;;;;;;;8.18;6.55;;;12.40;72.50;;;;;;4996070;28;20307;-63
2023/05/01 04:05:54;;;;;;;7.22;6.53;;;12.40;72.60;;;;;;4994919;28;20045;-63
2023/05/01 04:08:20;;;;;;;7.30;6.60;;;12.40;72.80;;;;;;4995324;28;20417;-63
2023/05/01 04:10:46;;;;;;;7.43;6.68;;;12.40;72.80;;;;;;4995484;28;20049;-63
2023/05/01 04:13:12;;;;;;;7.95;7.10;;;12.40;72.90;;;;;;4995163;28;20038;-63
2023/05/01 04:15:37;;;;;;;7.10;6.40;;;12.30;72.90;;;;;;4994834;28;20429;-63
2023/05/01 04:18:03;;;;;;;7.70;6.47;;;12.40;73.00;;;;;;4993851;28;20044;-63
2023/05/01 04:20:29;;;;;;;7.70;6.75;;;12.30;73.00;;;;;;4994944;28;20100;-63
2023/05/01 04:22:55;;;;;;;6.90;6.20;;;12.30;73.00;;;;;;4994684;28;20026;-63
2023/05/01 04:25:20;;;;;;;7.00;6.40;;;12.30;73.20;;;;;;4995991;28;20709;-63
2023/05/01 04:27:46;;;;;;;6.95;6.25;;;12.30;73.20;;;;;;4994486;28;20049;-63
2023/05/01 04:30:12;;;;;;;6.88;6.18;;;12.30;73.20;;;;;;4995192;28;20598;-62
2023/05/01 04:32:37;;;;;;;7.32;6.55;;;12.30;73.50;;;;;;4990461;28;20042;-63
2023/05/01 04:35:03;;;;;;;9.30;6.22;;;12.30;73.70;;;;;;4997123;28;20080;-63
2023/05/01 04:37:29;;;;;;;6.97;6.20;;;12.30;73.50;;;;;;4996885;28;20578;-63
2023/05/01 04:39:54;;;;;;;7.13;6.43;;;12.30;73.50;;;;;;4991286;28;20038;-63
2023/05/01 04:42:20;;;;;;;6.60;6.00;;;12.30;73.50;;;;;;4996527;28;20053;-63
2023/05/01 04:44:46;;;;;;;7.13;6.20;;;12.30;73.70;;;;;;4996702;28;20057;-63
2023/05/01 04:47:12;;;;;;;6.65;5.90;;;12.30;74.00;;;;;;4994936;28;21032;-62
2023/05/01 04:49:38;;;;;;;6.70;6.10;;;12.30;74.30;;;;;;4995647;28;20030;-63
2023/05/01 04:52:03;;;;;;;7.07;6.35;;;12.30;74.10;;;;;;4996057;28;20041;-63
2023/05/01 04:54:29;;;;;;;6.90;6.22;;;12.20;73.90;;;;;;4995169;28;20133;-63
2023/05/01 04:56:54;;;;;;;7.40;6.70;;;12.20;73.80;;;;;;4995111;28;20277;-63
2023/05/01 04:59:20;;;;;;;6.63;6.03;;;12.20;73.80;;;;;;4992176;28;20073;-62
2023/05/01 05:01:46;;;;;;;7.80;6.20;;;12.20;73.90;;;;;;4991389;28;20501;-63
2023/05/01 05:04:11;;;;;;;6.88;6.22;;;12.20;74.00;;;;;;4995475;28;20157;-63
2023/05/01 05:06:37;;;;;;;7.88;6.38;;;12.20;74.10;;;;;;4995392;28;20406;-63
2023/05/01 05:09:02;;;;;;;7.10;6.40;;;12.20;74.10;;;;;;4992772;28;20081;-63
2023/05/01 05:11:28;;;;;;;7.28;6.00;;;12.20;74.00;;;;;;4994688;28;20034;-63
2023/05/01 05:13:53;;;;;;;8.70;6.30;;;12.10;74.00;;;;;;4994055;28;20045;-62
2023/05/01 05:16:19;;;;;;;7.03;6.32;;;12.10;74.20;;;;;;4991227;28;20030;-63
2023/05/01 05:18:44;;;;;;;7.60;6.80;;;12.10;74.50;;;;;;4991817;28;20046;-63
2023/05/01 05:21:10;;;;;;;6.72;6.13;;;12.10;74.70;;;;;;4992495;28;20034;-63
2023/05/01 05:23:36;;;;;;;6.25;5.68;;;12.10;74.60;;;;;;4994138;28;20033;-63
2023/05/01 05:26:02;;;;;;;6.97;6.13;;;12.10;74.10;;;;;;4994308;28;20026;-62
2023/05/01 05:28:28;;;;;;;8.30;6.30;;;12.10;74.20;;;;;;4992081;28;20576;-61
2023/05/01 05:30:55;;;;;;;6.90;5.70;;;12.10;74.30;;;;;;4992130;28;20444;-62
2023/05/01 05:33:21;;;;;;;9.13;6.45;;;12.10;74.20;;;;;;4991036;28;20034;-63
2023/05/01 05:35:47;;;;;;;6.47;5.88;;;12.10;74.40;;;;;;4993792;28;20422;-62
2023/05/01 05:38:14;;;;;;;8.27;6.15;;;12.10;74.50;;;;;;4993338;28;20080;-63
2023/05/01 05:40:40;;;;;;;7.00;5.78;;;12.20;74.60;;;;;;4995340;28;20509;-62
2023/05/01 05:43:06;;;;;;;6.15;5.65;;;12.20;74.60;;;;;;4992464;28;20037;-63
2023/05/01 05:45:34;;;;;;;6.50;5.90;;;12.20;74.70;;;;;;4991754;28;20667;-62
2023/05/01 05:48:00;;;;;;;6.93;6.22;;;12.20;74.70;;;;;;4990305;28;20050;-62
2023/05/01 05:50:26;;;;;;;6.82;5.97;;;12.20;74.70;;;;;;4994380;28;20168;-63
2023/05/01 05:52:51;;;;;;;7.07;6.30;;;12.20;74.70;;;;;;4991441;28;20478;-62
2023/05/01 05:55:17;;;;;;;6.63;5.93;;;12.20;74.80;;;;;;4995878;28;20042;-62
2023/05/01 05:57:42;;;;;;;7.35;6.60;;;12.30;74.70;;;;;;4992196;28;20573;-62
2023/05/01 06:00:09;;;;;;;8.73;6.15;;;12.30;74.70;;;;;;4997933;28;20502;-62
2023/05/01 06:02:35;;;;;;;7.07;6.38;;;12.20;74.50;;;;;;4991658;28;20056;-62
2023/05/01 06:05:01;;;;;;;8.18;6.45;;;12.20;74.70;;;;;;4996708;28;20037;-63
2023/05/01 06:07:27;;;;;;;6.85;6.15;;;12.30;74.80;;;;;;4994694;28;20046;-63
2023/05/01 06:09:54;;;;;;;7.18;6.50;;;12.30;75.80;;;;;;4992822;28;20034;-62
2023/05/01 06:12:19;;;;;;;7.82;6.10;;;12.30;74.90;;;;;;4995807;28;21800;-62
2023/05/01 06:14:45;;;;;;;7.10;6.38;;;12.30;74.80;;;;;;4996847;28;20044;-62
2023/05/01 06:17:10;;;;;;;7.25;6.55;;;12.40;74.70;;;;;;4993283;28;20025;-62
2023/05/01 06:19:36;;;;;;;6.90;6.22;;;12.40;74.70;;;;;;4980519;28;20117;-62
2023/05/01 06:22:02;;;;;;;7.75;6.28;;;12.40;75.10;;;;;;4985960;28;20319;-62
2023/05/01 06:24:27;;;;;;;6.65;5.97;;;12.50;74.60;;;;;;4990204;28;20424;-60
2023/05/01 06:26:53;;;;;;;8.20;6.38;;;12.50;74.50;;;;;;4989480;28;20053;-64
2023/05/01 06:29:19;;;;;;;6.72;6.03;;;12.50;74.50;;;;;;4994682;28;20406;-62
2023/05/01 06:31:44;;;;;;;7.22;6.50;;;12.60;74.60;;;;;;4985708;28;20050;-62
2023/05/01 06:34:10;;;;;;;6.80;6.10;;;12.60;74.70;;;;;;4983623;28;20034;-62
2023/05/01 06:36:36;;;;;;;7.70;6.82;;;12.60;74.60;;;;;;4990949;28;20558;-62
2023/05/01 06:39:01;;;;;;;6.93;6.20;;;12.70;74.20;;;;;;4986743;28;20557;-62
2023/05/01 06:41:27;;;;;;;7.05;6.10;;;12.70;74.10;;;;;;4986083;28;20565;-61
2023/05/01 06:43:52;;;;;;;7.88;6.40;;;12.70;74.30;;;;;;4983578;28;20814;-63
2023/05/01 06:46:18;;;;;;;7.30;6.32;;;12.70;74.20;;;;;;4990523;28;20037;-62
2023/05/01 06:48:44;;;;;;;7.40;6.60;;;12.70;74.10;;;;;;4986559;28;20437;-62
2023/05/01 06:51:09;;;;;;;7.22;6.40;;;12.80;74.00;;;;;;4985897;28;20501;-62
2023/05/01 06:53:36;;;;;;;6.47;5.85;;;12.70;74.10;;;;;;4983532;28;20108;-63
2023/05/01 06:56:01;;;;;;;7.03;6.32;;;12.80;74.40;;;;;;4999910;28;20061;-62
2023/05/01 06:58:27;;;;;;;8.82;6.63;;;12.80;74.40;;;;;;5000339;28;20048;-64
2023/05/01 07:00:53;;;;;;;6.93;6.28;;;12.80;74.20;;;;;;5005537;28;20605;-62
2023/05/01 07:03:18;;;;;;;7.35;6.65;;;12.90;74.20;;;;;;4989188;28;21212;-63
2023/05/01 07:05:44;;;;;;;7.40;6.70;;;12.80;74.20;;;;;;4986109;28;20399;-63
2023/05/01 07:08:10;;;;;;;9.20;6.47;;;12.90;74.20;;;;;;4986208;28;21724;-62
2023/05/01 07:10:35;;;;;;;7.20;6.50;;;12.90;74.30;;;;;;4986465;28;20099;-63
2023/05/01 07:13:01;;;;;;;6.90;6.20;;;13.00;74.30;;;;;;4985475;28;20034;-62
2023/05/01 07:15:26;;;;;;;7.82;6.78;;;13.00;74.30;;;;;;4989779;28;20036;-63
2023/05/01 07:17:52;;;;;;;7.78;6.97;;;13.00;74.10;;;;;;4988052;28;20034;-60
2023/05/01 07:20:18;;;;;;;7.95;7.15;;;13.00;73.90;;;;;;4998016;28;20509;-62
2023/05/01 07:22:43;;;;;;;7.30;6.60;;;13.10;73.90;;;;;;4997899;28;20145;-61
2023/05/01 07:25:09;;;;;;;7.55;6.85;;;13.00;73.90;;;;;;4998161;28;20038;-62
2023/05/01 07:27:34;;;;;;;8.43;7.28;;;13.10;73.80;;;;;;4996174;28;20482;-62
2023/05/01 07:30:01;;;;;;;7.85;7.05;;;13.00;73.50;;;;;;4992052;28;20085;-62
2023/05/01 07:32:26;;;;;;;8.02;7.18;;;13.00;73.60;;;;;;4994256;28;20460;-62
2023/05/01 07:34:52;;;;;;;8.75;7.32;;;13.00;73.70;;;;;;4991601;28;20038;-63
2023/05/01 07:37:17;;;;;;;10.10;8.50;;;13.00;73.90;;;;;;5013172;28;20048;-63
2023/05/01 07:39:43;;;;;;;8.00;7.20;;;12.90;74.10;;;;;;5016536;28;20167;-63
2023/05/01 07:42:09;;;;;;;7.70;6.85;;;12.90;74.00;;;;;;5017844;28;20038;-63
2023/05/01 07:44:35;;;;;;;10.00;6.93;;;12.90;73.90;;;;;;5018797;28;20712;-63
2023/05/01 07:47:05;;;;;;;7.57;6.75;;;12.90;74.00;;;;;;5011725;28;20177;-63
2023/05/01 07:49:36;;;;;;;7.03;6.32;;;12.80;74.20;;;;;;5017356;28;20094;-62
2023/05/01 07:52:02;;;;;;;7.55;6.20;;;12.80;74.30;;;;;;5016243;28;20034;-63
2023/05/01 07:54:27;;;;;;;7.15;6.40;;;12.90;74.00;;;;;;5012780;28;20429;-63
2023/05/01 07:56:53;;;;;;;7.13;6.22;;;12.90;73.70;;;;;;5015822;28;20091;-63
2023/05/01 07:59:18;;;;;;;6.78;6.00;;;12.90;73.30;;;;;;5012707;28;20214;-63
2023/05/01 08:01:44;;;;;;;6.80;6.13;;;12.90;73.20;;;;;;5008226;28;20582;-63
2023/05/01 08:04:09;;;;;;;7.20;6.43;;;12.90;73.20;;;;;;5010006;28;20036;-63
2023/05/01 08:06:35;;;;;;;6.65;6.05;;;12.90;73.20;;;;;;5014875;28;20034;-63
2023/05/01 08:09:01;;;;;;;6.95;6.25;;;12.90;73.30;;;;;;5013678;28;20038;-63
2023/05/01 08:11:28;;;;;;;6.93;6.20;;;13.00;73.40;;;;;;5013323;28;20431;-63
2023/05/01 08:13:53;;;;;;;6.95;6.28;;;13.00;74.40;;;;;;5012760;28;20038;-63
2023/05/01 08:16:19;;;;;;;7.50;6.80;;;13.00;73.50;;;;;;5014150;28;20036;-63
2023/05/01 08:18:45;;;;;;;8.85;6.43;;;13.10;73.60;;;;;;5013019;28;20412;-63
2023/05/01 08:21:11;;;;;;;6.63;6.03;;;13.20;73.50;;;;;;5014117;28;20030;-64
2023/05/01 08:23:36;;;;;;;7.20;5.78;;;13.20;73.50;;;;;;5015630;28;20512;-62
2023/05/01 08:26:02;;;;;;;6.38;5.75;;;13.20;73.20;;;;;;5015467;28;20038;-63
2023/05/01 08:28:28;;;;;;;9.02;6.07;;;13.30;73.20;;;;;;5012977;28;20041;-62
2023/05/01 08:30:53;;;;;;;7.35;6.60;;;13.30;73.00;;;;;;5011305;28;20045;-64
2023/05/01 08:33:19;;;;;;;7.20;6.13;;;13.40;72.80;;;;;;5009757;28;20034;-62
2023/05/01 08:35:44;;;;;;;7.00;5.65;;;13.40;72.60;;;;;;5014281;28;20052;-64
2023/05/01 08:38:11;;;;;;;7.03;6.32;;;13.40;72.60;;;;;;5012817;28;20505;-63
2023/05/01 08:40:38;;;;;;;6.82;6.13;;;13.40;72.80;;;;;;5018114;28;20025;-63
2023/05/01 08:43:04;;;;;;;6.80;6.10;;;13.50;73.00;;;;;;5014941;28;20113;-63
2023/05/01 08:45:36;;;;;;;6.20;5.68;;;13.50;72.90;;;;;;5016594;28;20285;-64
2023/05/01 08:48:05;;;;;;;8.43;6.30;;;13.60;72.70;;;;;;5017980;28;20041;-64
2023/05/01 08:50:33;;;;;;;6.97;6.28;;;13.60;72.70;;;;;;5017187;28;20045;-63
2023/05/01 08:53:00;;;;;;;6.90;5.60;;;13.60;72.50;;;;;;5018705;28;20058;-63
2023/05/01 08:55:28;;;;;;;7.53;6.20;;;13.70;73.20;;;;;;5019464;28;20515;-64
2023/05/01 08:57:56;;;;;;;7.95;5.90;;;13.80;72.20;;;;;;5017600;28;20571;-64
2023/05/01 09:00:23;;;;;;;9.65;6.80;;;13.70;72.30;;;;;;5017453;28;20052;-64
2023/05/01 09:02:50;;;;;;;6.90;6.20;;;13.80;72.10;;;;;;5016977;28;20167;-63
2023/05/01 09:05:19;;;;;;;7.75;6.95;;;13.80;72.00;;;;;;5018454;28;20037;-64
2023/05/01 09:07:45;;;;;;;6.32;5.72;;;13.90;72.10;;;;;;5015490;28;20402;-64
2023/05/01 09:10:12;;;;;;;6.53;5.93;;;13.90;72.10;;;;;;5016983;28;20044;-63
2023/05/01 09:12:40;;;;;;;7.20;6.10;;;13.90;72.00;;;;;;5015949;28;20111;-63
2023/05/01 09:15:06;;;;;;;7.03;6.32;;;13.90;71.80;;;;;;5016974;28;20099;-63
2023/05/01 09:17:33;;;;;;;6.38;5.85;;;13.90;71.90;;;;;;5016030;28;20037;-63
2023/05/01 09:20:01;;;;;;;6.45;5.85;;;14.00;71.90;;;;;;5016441;28;20086;-64
2023/05/01 09:22:29;;;;;;;7.45;6.72;;;14.00;72.00;;;;;;5018318;28;20086;-63
2023/05/01 09:24:55;;;;;;;6.93;6.22;;;14.10;71.80;;;;;;5016997;28;20060;-63
2023/05/01 09:27:21;;;;;;;7.18;6.20;;;14.10;71.70;;;;;;5013171;28;20055;-63
2023/05/01 09:29:47;;;;;;;6.70;6.10;;;14.20;71.80;;;;;;5016757;28;20041;-63
2023/05/01 09:32:21;;;;;;;7.93;6.60;;;14.20;71.80;;;;;;5018711;28;20033;-62
2023/05/01 09:34:48;;;;;;;8.20;5.55;;;14.30;71.60;;;;;;5016027;28;20298;-63
2023/05/01 09:37:48;;;;;;;6.82;6.22;;;14.40;71.90;;;;;;5018346;28;20497;-63
2023/05/01 09:40:14;;;;;;;9.18;7.50;;;14.40;71.60;;;;;;5026954;28;20464;-63
2023/05/01 09:42:48;;;;;;;7.15;6.35;;;14.50;71.60;;;;;;5017259;28;20054;-63
2023/05/01 09:45:15;;;;;;;6.97;5.50;;;14.60;71.60;;;;;;5016005;28;20563;-63
2023/05/01 09:47:42;;;;;;;7.30;5.82;;;14.60;71.50;;;;;;5017949;28;20046;-64
2023/05/01 09:50:08;;;;;;;7.30;6.60;;;14.70;71.50;;;;;;5018232;28;20160;-63
2023/05/01 09:52:34;;;;;;;8.57;6.50;;;14.70;71.40;;;;;;5016407;28;20505;-63
2023/05/01 09:55:16;;;;;;;6.38;5.78;;;14.80;71.50;;;;;;5019006;28;20112;-64
2023/05/01 09:57:43;;;;;;;6.35;5.72;;;14.90;71.90;;;;;;5015275;28;20044;-63
2023/05/01 10:00:11;;;;;;;7.78;6.28;;;14.90;71.60;;;;;;5018071;28;20433;-63
2023/05/01 10:02:38;;;;;;;7.30;6.30;;;15.00;71.20;;;;;;5013439;28;20033;-63
2023/05/01 10:05:05;;;;;;;6.85;6.15;;;15.10;71.10;;;;;;5016464;28;20041;-63
2023/05/01 10:07:31;;;;;;;7.15;5.80;;;15.10;70.60;;;;;;5018139;28;20033;-63
2023/05/01 10:09:56;;;;;;;6.20;5.60;;;15.20;70.70;;;;;;5015924;28;20417;-64
2023/05/01 10:12:27;;;;;;;6.78;5.60;;;15.20;70.80;;;;;;5017538;28;20117;-63
2023/05/01 10:14:54;;;;;;;6.25;5.65;;;15.30;70.80;;;;;;4996192;28;20042;-64
2023/05/01 10:17:20;;;;;;;6.10;5.50;;;15.30;71.60;;;;;;4996249;28;20041;-64
2023/05/01 10:19:46;;;;;;;7.90;6.03;;;15.40;70.60;;;;;;4996433;28;20084;-63
2023/05/01 10:22:13;;;;;;;6.07;5.47;;;15.50;70.50;;;;;;4996992;28;20038;-63
2023/05/01 10:24:39;;;;;;;5.80;5.20;;;15.50;70.30;;;;;;4993385;28;20034;-64
2023/05/01 10:27:06;;;;;;;5.88;5.38;;;15.60;70.00;;;;;;4995674;28;20173;-63
2023/05/01 10:29:35;;;;;;;6.20;5.60;;;15.70;69.90;;;;;;4996429;28;20035;-63
2023/05/01 10:32:03;;;;;;;6.20;5.60;;;15.80;69.80;;;;;;4995562;28;20073;-63
2023/05/01 10:34:31;;;;;;;5.55;5.15;;;15.90;70.10;;;;;;4991652;28;20045;-63
2023/05/01 10:37:03;;;;;;;5.68;5.18;;;16.00;69.70;;;;;;4996589;28;20034;-64
2023/05/01 10:39:37;;;;;;;5.97;4.93;;;16.10;69.50;;;;;;4996503;28;20119;-63
2023/05/01 10:42:04;;;;;;;5.65;4.75;;;16.20;69.00;;;;;;4996239;28;20045;-64
2023/05/01 10:44:30;;;;;;;6.15;4.88;;;16.30;69.20;;;;;;4996280;28;20034;-64
2023/05/01 10:46:56;;;;;;;5.18;4.68;;;16.40;70.00;;;;;;5000338;28;20030;-64
2023/05/01 10:49:22;;;;;;;6.63;4.70;;;16.50;68.60;;;;;;5000401;28;20117;-64
2023/05/01 10:51:58;;;;;;;4.90;4.50;;;16.60;68.20;;;;;;5000409;28;20121;-64
2023/05/01 10:54:26;;;;;;;5.63;4.55;;;16.80;67.60;;;;;;5000485;28;20038;-64
2023/05/01 10:56:53;;;;;;;4.90;4.47;;;16.90;67.70;;;;;;4999391;28;20035;-64
2023/05/01 10:59:19;;;;;;;4.85;4.45;;;17.00;67.30;;;;;;4998743;28;20125;-64
2023/05/01 11:01:47;;;;;;;4.85;4.45;;;17.10;67.30;;;;;;4997480;28;20046;-64
2023/05/01 11:04:25;;;;;;;5.53;4.65;;;17.20;67.30;;;;;;4996072;28;20030;-64
2023/05/01 11:07:06;;;;;;;5.10;4.60;;;17.30;66.90;;;;;;4995806;28;20529;-64
2023/05/01 11:09:35;;;;;;;4.93;4.43;;;17.30;66.50;;;;;;4993588;28;20136;-63
2023/05/01 11:12:00;;;;;;;5.03;4.60;;;17.40;67.30;;;;;;4997870;28;20040;-64
2023/05/01 11:14:26;;;;;;;5.53;4.82;;;17.50;66.90;;;;;;4998029;28;20042;-64
2023/05/01 11:16:51;;;;;;;4.93;4.53;;;17.60;66.50;;;;;;4998340;28;20037;-64
2023/05/01 11:19:20;;;;;;;5.20;4.70;;;17.60;66.20;;;;;;4999165;28;20045;-63
2023/05/01 11:21:46;;;;;;;4.63;4.22;;;17.70;65.90;;;;;;4997903;28;20039;-64
2023/05/01 11:24:11;;;;;;;4.75;4.35;;;17.70;65.50;;;;;;5000170;28;20034;-64
2023/05/01 11:26:38;;;;;;;5.05;4.55;;;17.80;64.60;;;;;;4998025;28;20038;-64
2023/05/01 11:29:05;;;;;;;4.53;4.13;;;17.80;64.60;;;;;;4999484;28;20433;-64
2023/05/01 11:31:31;;;;;;;4.68;4.28;;;17.80;64.40;;;;;;4999768;28;20521;-64
2023/05/01 11:34:00;;;;;;;5.47;4.97;;;17.90;64.10;;;;;;4999052;28;20042;-64
2023/05/01 11:36:27;;;;;;;5.47;4.97;;;17.90;64.50;;;;;;4999222;28;20030;-64
2023/05/01 11:38:58;;;;;;;6.13;5.53;;;17.90;65.20;;;;;;4998353;28;20043;-64
2023/05/01 11:41:27;;;;;;;5.15;4.72;;;17.80;65.70;;;;;;4998766;28;20113;-64
2023/05/01 11:43:55;;;;;;;4.78;4.38;;;17.80;65.50;;;;;;4998243;28;20042;-64
2023/05/01 11:46:30;;;;;;;4.45;4.05;;;17.70;65.90;;;;;;4995935;28;20038;-64
2023/05/01 11:48:57;;;;;;;4.72;4.32;;;17.70;65.70;;;;;;4997407;28;20065;-64
2023/05/01 11:51:23;;;;;;;5.13;4.53;;;17.60;65.90;;;;;;4997108;28;20414;-64
2023/05/01 11:54:09;;;;;;;5.55;5.07;;;17.50;66.60;;;;;;4995602;28;20038;-64
2023/05/01 11:56:36;;;;;;;5.03;4.63;;;17.40;68.00;;;;;;4997307;28;20049;-64
2023/05/01 11:59:10;;;;;;;5.65;5.15;;;17.30;67.40;;;;;;4997691;28;20041;-64
2023/05/01 12:01:38;;;;;;;5.35;4.95;;;17.20;68.50;;;;;;4999034;28;20061;-64
2023/05/01 12:04:06;;;;;;;6.03;5.43;;;17.10;68.10;;;;;;4993297;28;20091;-63
2023/05/01 12:06:43;;;;;;;5.63;5.13;;;17.00;68.50;;;;;;4997135;28;20041;-64
2023/05/01 12:09:15;;;;;;;6.25;5.75;;;16.90;69.40;;;;;;4993737;28;20053;-64
2023/05/01 12:11:41;;;;;;;6.85;6.07;;;16.90;69.90;;;;;;4994679;28;20506;-64
2023/05/01 12:14:08;;;;;;;6.28;5.68;;;16.80;70.10;;;;;;4997416;28;20126;-64
2023/05/01 12:16:34;;;;;;;6.75;5.65;;;16.80;71.40;;;;;;4996483;28;20041;-64
2023/05/01 12:19:00;;;;;;;5.78;5.28;;;16.80;70.70;;;;;;4992274;28;20054;-64
2023/05/01 12:21:27;;;;;;;6.78;5.15;;;16.80;70.70;;;;;;4996843;28;20104;-64
2023/05/01 12:23:53;;;;;;;5.07;4.53;;;16.80;70.70;;;;;;4996575;28;20535;-64
2023/05/01 12:26:24;;;;;;;4.97;4.53;;;16.80;70.30;;;;;;4996397;28;20034;-64
2023/05/01 12:28:57;;;;;;;4.85;4.45;;;16.80;70.20;;;;;;4994165;28;20682;-64
2023/05/01 12:31:25;;;;;;;4.20;3.75;;;16.70;70.30;;;;;;4995476;28;20406;-64
2023/05/01 12:33:59;;;;;;;3.53;3.22;;;16.80;70.20;;;;;;4996404;28;20030;-64
2023/05/01 12:36:27;;;;;;;2.90;2.70;;;16.80;70.00;;;;;;4995896;28;20041;-64
2023/05/01 12:39:13;;;;;;;1.77;1.67;;;16.90;69.60;;;;;;4997462;28;20288;-65
2023/05/01 12:41:47;;;;;;;1.20;1.20;;;16.90;68.20;;;;;;4995608;28;20033;-64
2023/05/01 12:44:15;;;;;;;2.10;1.10;;;16.90;67.80;;;;;;4994755;28;20033;-64
2023/05/01 12:46:41;;;;;;;1.20;1.10;;;16.90;67.60;;;;;;4993338;28;20133;-64
2023/05/01 12:49:07;;;;;;;0.90;0.80;;;16.90;67.60;;;;;;4995002;28;20560;-65